createdAt,value
2023-04-11T00:00:10.166Z,100089.82
2023-04-11T00:01:15.062Z,100093.16
2023-04-11T00:02:17.638Z,100088.13
2023-04-11T00:03:20.389Z,100084.33
2023-04-11T00:04:24.784Z,100078.11
2023-04-11T00:05:28.279Z,100085.59
2023-04-11T00:06:32.566Z,100087.91
2023-04-11T00:07:35.323Z,100082.66
2023-04-11T00:08:37.720Z,100080.12
2023-04-11T00:09:39.681Z,100082.84
2023-04-11T00:10:43.218Z,100080.40
2023-04-11T00:11:46.023Z,100078.92
2023-04-11T00:12:48.499Z,100085.01
2023-04-11T00:13:50.520Z,100084.54
2023-04-11T00:14:53.298Z,100079.73
2023-04-11T00:15:56.041Z,100080.48
2023-04-11T00:17:00.290Z,100086.55
2023-04-11T00:18:02.471Z,100082.99
2023-04-11T00:19:06.452Z,100079.38
2023-04-11T00:20:11.304Z,100081.05
2023-04-11T00:21:13.374Z,100079.56
2023-04-11T00:22:17.727Z,100080.55
2023-04-11T00:23:20.359Z,100079.59
2023-04-11T00:24:22.568Z,100080.67
2023-04-11T00:25:25.006Z,100079.17
2023-04-11T00:26:27.247Z,100081.86
2023-04-11T00:27:29.580Z,100088.66
2023-04-11T00:28:31.910Z,100083.64
2023-04-11T00:29:35.117Z,100079.47
2023-04-11T00:30:38.886Z,100071.54
2023-04-11T00:31:41.293Z,100071.54
2023-04-11T00:32:45.412Z,100076.22
2023-04-11T00:33:47.540Z,100077.92
2023-04-11T00:34:49.912Z,100075.50
2023-04-11T00:35:51.934Z,100070.19
2023-04-11T00:36:54.575Z,100069.23
2023-04-11T00:37:58.051Z,100076.81
2023-04-11T00:39:03.465Z,100077.53
2023-04-11T00:40:07.137Z,100063.81
2023-04-11T00:41:09.427Z,100064.59
2023-04-11T00:42:12.836Z,100064.91
2023-04-11T00:43:15.127Z,100072.73
2023-04-11T00:44:17.451Z,100068.28
2023-04-11T00:45:19.828Z,100069.18
2023-04-11T00:46:22.180Z,100071.69
2023-04-11T00:47:25.306Z,100065.55
2023-04-11T00:48:27.962Z,100062.89
2023-04-11T00:49:31.407Z,100069.69
2023-04-11T00:50:35.484Z,100073.09
2023-04-11T00:51:37.981Z,100069.69
2023-04-11T00:52:40.714Z,100069.78
2023-04-11T00:53:45.121Z,100069.36
2023-04-11T00:54:48.060Z,100071.09
2023-04-11T00:55:50.901Z,100070.88
2023-04-11T00:56:53.402Z,100070.88
2023-04-11T00:57:56.117Z,100074.22
2023-04-11T00:58:59.186Z,100071.77
2023-04-11T01:00:03.418Z,100075.17
2023-04-11T01:01:08.509Z,100074.02
2023-04-11T01:02:11.396Z,100081.56
2023-04-11T01:03:13.844Z,100082.31
2023-04-11T01:04:16.982Z,100076.16
2023-04-11T01:05:19.504Z,100082.93
2023-04-11T01:06:23.807Z,100075.56
2023-04-11T01:07:26.157Z,100075.56
2023-04-11T01:08:28.662Z,100078.16
2023-04-11T01:09:32.904Z,100078.16
2023-04-11T01:10:36.217Z,100082.75
2023-04-11T01:11:39.226Z,100081.23
2023-04-11T01:12:43.557Z,100076.22
2023-04-11T01:13:46.533Z,100078.12
2023-04-11T01:14:48.951Z,100079.97
2023-04-11T01:15:51.379Z,100077.57
2023-04-11T01:16:55.859Z,100075.88
2023-04-11T01:18:00.168Z,100077.89
2023-04-11T01:19:03.757Z,100078.17
2023-04-11T01:20:08.247Z,100078.22
2023-04-11T01:21:11.516Z,100075.63
2023-04-11T01:22:17.491Z,100076.27
2023-04-11T01:23:27.050Z,100071.97
2023-04-11T01:24:30.073Z,100073.79
2023-04-11T01:25:32.449Z,100074.55
2023-04-11T01:26:35.197Z,100077.08
2023-04-11T01:27:37.885Z,100068.69
2023-04-11T01:28:40.100Z,100076.41
2023-04-11T01:29:43.152Z,100072.03
2023-04-11T01:30:46.032Z,100074.84
2023-04-11T01:31:51.967Z,100073.90
2023-04-11T01:32:54.588Z,100067.80
2023-04-11T01:34:01.346Z,100071.08
2023-04-11T01:35:05.081Z,100068.61
2023-04-11T01:36:08.750Z,100069.86
2023-04-11T01:37:11.106Z,100072.72
2023-04-11T01:38:13.210Z,100067.67
2023-04-11T01:39:15.444Z,100066.16
2023-04-11T01:40:18.924Z,100068.11
2023-04-11T01:41:23.176Z,100070.06
2023-04-11T01:42:27.220Z,100063.89
2023-04-11T01:43:29.728Z,100065.45
2023-04-11T01:44:32.972Z,100066.11
2023-04-11T01:45:37.922Z,100065.02
2023-04-11T01:46:40.908Z,100057.11
2023-04-11T01:47:43.395Z,100064.70
2023-04-11T01:48:48.926Z,100055.97
2023-04-11T01:49:53.160Z,100055.89
2023-04-11T01:50:56.058Z,100053.23
2023-04-11T01:51:58.248Z,100052.41
2023-04-11T01:53:01.484Z,100052.48
2023-04-11T01:54:05.538Z,100057.59
2023-04-11T01:55:08.297Z,100059.38
2023-04-11T01:56:12.545Z,100051.09
2023-04-11T01:57:14.800Z,100050.47
2023-04-11T01:58:16.905Z,100048.27
2023-04-11T01:59:18.932Z,100044.91
2023-04-11T02:00:21.839Z,100052.90
2023-04-11T02:01:24.380Z,100048.64
2023-04-11T02:02:26.731Z,100048.77
2023-04-11T02:03:28.939Z,100052.25
2023-04-11T02:04:32.515Z,100049.97
2023-04-11T02:05:35.078Z,100046.67
2023-04-11T02:06:38.053Z,100050.27
2023-04-11T02:07:40.570Z,100051.92
2023-04-11T02:08:43.841Z,100050.45
2023-04-11T02:09:47.077Z,100054.17
2023-04-11T02:10:49.815Z,100056.05
2023-04-11T02:11:52.073Z,100049.34
2023-04-11T02:12:54.230Z,100050.23
2023-04-11T02:13:56.252Z,100050.97
2023-04-11T02:14:58.389Z,100049.87
2023-04-11T02:16:11.256Z,100054.10
2023-04-11T02:17:13.896Z,100049.64
2023-04-11T02:18:16.136Z,100041.92
2023-04-11T02:19:20.500Z,100041.92
2023-04-11T02:20:23.438Z,100047.86
2023-04-11T02:21:26.257Z,100041.80
2023-04-11T02:22:28.189Z,100039.86
2023-04-11T02:23:30.147Z,100038.09
2023-04-11T02:24:32.394Z,100039.16
2023-04-11T02:25:34.812Z,100040.52
2023-04-11T02:26:37.427Z,100044.76
2023-04-11T02:27:40.006Z,100041.97
2023-04-11T02:28:42.225Z,100032.55
2023-04-11T02:29:44.443Z,100040.39
2023-04-11T02:30:46.652Z,100033.62
2023-04-11T02:31:49.345Z,100032.98
2023-04-11T02:32:52.939Z,100033.86
2023-04-11T02:33:55.542Z,100039.75
2023-04-11T02:34:57.572Z,100033.15
2023-04-11T02:36:00.180Z,100038.22
2023-04-11T02:37:03.436Z,100043.40
2023-04-11T02:38:05.634Z,100037.44
2023-04-11T02:39:07.641Z,100036.69
2023-04-11T02:40:10.777Z,100039.33
2023-04-11T02:41:13.447Z,100036.86
2023-04-11T02:42:15.312Z,100036.14
2023-04-11T02:43:17.289Z,100030.31
2023-04-11T02:44:19.872Z,100032.79
2023-04-11T02:45:22.714Z,100025.74
2023-04-11T02:46:25.331Z,100029.15
2023-04-11T02:47:27.709Z,100024.80
2023-04-11T02:48:32.695Z,100029.22
2023-04-11T02:49:34.760Z,100028.50
2023-04-11T02:50:41.366Z,100030.16
2023-04-11T02:51:43.937Z,100023.20
2023-04-11T02:52:48.692Z,100027.56
2023-04-11T02:53:53.816Z,100029.31
2023-04-11T02:54:56.338Z,100024.20
2023-04-11T02:55:58.320Z,100023.44
2023-04-11T02:57:01.600Z,100023.61
2023-04-11T02:58:03.686Z,100023.61
2023-04-11T02:59:07.126Z,100024.38
2023-04-11T03:00:11.807Z,100028.01
2023-04-11T03:01:20.885Z,100025.47
2023-04-11T03:02:23.379Z,100033.06
2023-04-11T03:03:25.669Z,100021.84
2023-04-11T03:04:28.886Z,100028.61
2023-04-11T03:05:32.975Z,100018.86
2023-04-11T03:06:35.565Z,100033.55
2023-04-11T03:07:40.363Z,100026.67
2023-04-11T03:08:43.907Z,100023.03
2023-04-11T03:09:46.400Z,100020.91
2023-04-11T03:10:48.394Z,100026.91
2023-04-11T03:11:52.837Z,100020.85
2023-04-11T03:12:55.284Z,100018.27
2023-04-11T03:13:57.804Z,100025.95
2023-04-11T03:14:59.938Z,100028.61
2023-04-11T03:16:03.557Z,100022.77
2023-04-11T03:17:06.922Z,100030.41
2023-04-11T03:18:09.057Z,100020.18
2023-04-11T03:19:13.366Z,100020.23
2023-04-11T03:20:17.919Z,100018.43
2023-04-11T03:21:20.596Z,100016.73
2023-04-11T03:22:24.288Z,100027.08
2023-04-11T03:23:26.614Z,100022.61
2023-04-11T03:24:29.458Z,100029.43
2023-04-11T03:25:31.780Z,100021.06
2023-04-11T03:26:35.945Z,100006.55
2023-04-11T03:27:40.859Z,100007.41
2023-04-11T03:28:43.112Z,100027.98
2023-04-11T03:29:45.315Z,100025.53
2023-04-11T03:30:49.967Z,100029.71
2023-04-11T03:31:54.040Z,100019.20
2023-04-11T03:32:58.931Z,100020.06
2023-04-11T03:34:02.085Z,100033.79
2023-04-11T03:35:05.285Z,100026.13
2023-04-11T03:36:08.949Z,100030.48
2023-04-11T03:37:11.427Z,100025.41
2023-04-11T03:38:14.366Z,100028.71
2023-04-11T03:39:16.848Z,100033.79
2023-04-11T03:40:19.514Z,100021.73
2023-04-11T03:41:26.262Z,100021.73
2023-04-11T03:42:29.063Z,100028.61
2023-04-11T03:43:33.537Z,100026.67
2023-04-11T03:44:36.033Z,100030.97
2023-04-11T03:45:38.033Z,100030.97
2023-04-11T03:46:42.199Z,100022.39
2023-04-11T03:47:45.656Z,100024.09
2023-04-11T03:48:49.418Z,100027.39
2023-04-11T03:49:52.890Z,100033.55
2023-04-11T03:50:55.854Z,100025.08
2023-04-11T03:52:00.258Z,100030.25
2023-04-11T03:53:03.633Z,100032.02
2023-04-11T03:54:05.942Z,100040.77
2023-04-11T03:55:10.542Z,100035.42
2023-04-11T03:56:14.392Z,100029.38
2023-04-11T03:57:16.487Z,100030.80
2023-04-11T03:58:20.927Z,100034.20
2023-04-11T03:59:23.557Z,100040.03
2023-04-11T04:00:30.640Z,100036.40
2023-04-11T04:01:37.834Z,100035.45
2023-04-11T04:02:40.412Z,100031.92
2023-04-11T04:03:43.586Z,100031.86
2023-04-11T04:04:51.842Z,100031.03
2023-04-11T04:05:56.245Z,100029.40
2023-04-11T04:06:58.901Z,100033.62
2023-04-11T04:08:04.225Z,100027.45
2023-04-11T04:09:09.284Z,100033.52
2023-04-11T04:10:19.609Z,100031.81
2023-04-11T04:11:23.664Z,100021.05
2023-04-11T04:12:27.838Z,100027.09
2023-04-11T04:13:32.121Z,100023.14
2023-04-11T04:14:38.864Z,100014.56
2023-04-11T04:15:41.902Z,100018.84
2023-04-11T04:16:44.821Z,100022.15
2023-04-11T04:17:49.141Z,100028.45
2023-04-11T04:18:53.386Z,100016.55
2023-04-11T04:19:56.585Z,100025.02
2023-04-11T04:20:59.357Z,100014.73
2023-04-11T04:22:03.386Z,100023.37
2023-04-11T04:23:07.340Z,100019.02
2023-04-11T04:24:11.771Z,100016.33
2023-04-11T04:25:27.565Z,100020.69
2023-04-11T04:26:31.990Z,100011.25
2023-04-11T04:27:36.766Z,100014.73
2023-04-11T04:28:40.333Z,100014.63
2023-04-11T04:29:47.316Z,100013.69
2023-04-11T04:30:54.352Z,100016.26
2023-04-11T04:31:59.391Z,100006.67
2023-04-11T04:33:04.059Z,100005.64
2023-04-11T04:34:10.608Z,100010.81
2023-04-11T04:35:16.003Z,100007.44
2023-04-11T04:36:18.519Z,100007.27
2023-04-11T04:37:24.373Z,100003.80
2023-04-11T04:38:29.149Z,100001.98
2023-04-11T04:39:33.469Z,99999.45
2023-04-11T04:40:38.424Z,99992.75
2023-04-11T04:41:41.157Z,99992.80
2023-04-11T04:42:44.212Z,99984.17
2023-04-11T04:43:48.269Z,99986.73
2023-04-11T04:45:05.532Z,99987.57
2023-04-11T04:46:10.319Z,99988.58
2023-04-11T04:47:23.530Z,99992.70
2023-04-11T04:48:26.096Z,99991.86
2023-04-11T04:49:28.955Z,99987.50
2023-04-11T04:50:31.303Z,99990.03
2023-04-11T04:51:33.426Z,99991.81
2023-04-11T04:52:36.197Z,99984.86
2023-04-11T04:53:39.102Z,99984.86
2023-04-11T04:54:43.113Z,99975.22
2023-04-11T04:55:45.816Z,99976.11
2023-04-11T04:56:48.685Z,99979.51
2023-04-11T04:57:51.425Z,99978.63
2023-04-11T04:58:54.282Z,99970.85
2023-04-11T04:59:57.583Z,99972.45
2023-04-11T05:01:02.328Z,99969.78
2023-04-11T05:02:05.659Z,99967.95
2023-04-11T05:03:08.365Z,99975.48
2023-04-11T05:04:11.404Z,99967.83
2023-04-11T05:05:18.789Z,99972.09
2023-04-11T05:06:22.065Z,99976.38
2023-04-11T05:07:25.935Z,99974.47
2023-04-11T05:08:28.264Z,99967.41
2023-04-11T05:09:32.413Z,99968.16
2023-04-11T05:10:39.371Z,99969.75
2023-04-11T05:11:41.798Z,99971.37
2023-04-11T05:12:44.132Z,99967.89
2023-04-11T05:13:47.348Z,99967.89
2023-04-11T05:14:52.489Z,99966.95
2023-04-11T05:15:54.760Z,99967.73
2023-04-11T05:16:59.093Z,99962.52
2023-04-11T05:19:14.998Z,99959.34
2023-04-11T05:20:19.419Z,99960.55
2023-04-11T05:21:22.649Z,99971.61
2023-04-11T05:22:26.670Z,99965.54
2023-04-11T05:23:30.647Z,99965.48
2023-04-11T05:24:34.705Z,99970.52
2023-04-11T05:25:37.157Z,99973.00
2023-04-11T05:26:40.294Z,99966.92
2023-04-11T05:27:42.800Z,99973.73
2023-04-11T05:28:45.159Z,99972.72
2023-04-11T05:29:49.051Z,99970.82
2023-04-11T05:30:52.099Z,99968.14
2023-04-11T05:31:55.201Z,99973.13
2023-04-11T05:32:57.971Z,99966.04
2023-04-11T05:34:00.891Z,99969.31
2023-04-11T05:35:03.652Z,99969.31
2023-04-11T05:36:14.824Z,99960.77
2023-04-11T05:37:17.055Z,99960.67
2023-04-11T05:38:20.576Z,99958.68
2023-04-11T05:39:22.876Z,99953.28
2023-04-11T05:40:25.617Z,99954.98
2023-04-11T05:41:28.198Z,99959.06
2023-04-11T05:42:30.793Z,99951.91
2023-04-11T05:43:35.791Z,99949.22
2023-04-11T05:44:39.549Z,99951.66
2023-04-11T05:45:44.382Z,99955.83
2023-04-11T05:46:47.224Z,99954.87
2023-04-11T05:47:50.062Z,99957.43
2023-04-11T05:48:53.265Z,99954.77
2023-04-11T05:49:55.361Z,99957.20
2023-04-11T05:50:59.749Z,99956.98
2023-04-11T05:52:02.082Z,99956.77
2023-04-11T05:53:04.905Z,99955.74
2023-04-11T05:54:07.188Z,99959.08
2023-04-11T05:55:10.431Z,99952.89
2023-04-11T05:56:13.113Z,99953.55
2023-04-11T05:57:16.964Z,99950.80
2023-04-11T05:58:19.475Z,99952.27
2023-04-11T05:59:26.998Z,99952.36
2023-04-11T06:00:31.438Z,99946.20
2023-04-11T06:01:34.389Z,99951.17
2023-04-11T06:02:36.756Z,99945.08
2023-04-11T06:03:39.285Z,99945.01
2023-04-11T06:04:41.832Z,99945.88
2023-04-11T06:05:44.193Z,99945.64
2023-04-11T06:06:48.232Z,99953.36
2023-04-11T06:07:51.279Z,99941.17
2023-04-11T06:08:54.751Z,99941.23
2023-04-11T06:09:58.184Z,99946.13
2023-04-11T06:11:00.796Z,99942.50
2023-04-11T06:12:03.436Z,99947.59
2023-04-11T06:13:06.825Z,99941.49
2023-04-11T06:14:09.202Z,99945.65
2023-04-11T06:15:13.741Z,99949.70
2023-04-11T06:16:16.754Z,99945.16
2023-04-11T06:17:19.142Z,99943.36
2023-04-11T06:18:21.493Z,99944.09
2023-04-11T06:19:23.763Z,99941.38
2023-04-11T06:20:26.579Z,99944.70
2023-04-11T06:21:31.355Z,99935.94
2023-04-11T06:22:33.823Z,99933.27
2023-04-11T06:23:35.745Z,99934.82
2023-04-11T06:24:39.384Z,99934.71
2023-04-11T06:25:41.659Z,99939.80
2023-04-11T06:26:44.577Z,99938.75
2023-04-11T06:27:48.185Z,99936.95
2023-04-11T06:28:50.822Z,99938.39
2023-04-11T06:29:53.014Z,99941.64
2023-04-11T06:30:55.166Z,99932.89
2023-04-11T06:31:59.729Z,99937.05
2023-04-11T06:33:01.905Z,99942.97
2023-04-11T06:34:04.114Z,99943.87
2023-04-11T06:35:07.057Z,99944.59
2023-04-11T06:36:11.058Z,99939.20
2023-04-11T06:37:15.405Z,99940.78
2023-04-11T06:38:17.507Z,99935.58
2023-04-11T06:39:21.398Z,99935.42
2023-04-11T06:40:23.939Z,99934.41
2023-04-11T06:41:26.068Z,99932.56
2023-04-11T06:42:28.476Z,99934.90
2023-04-11T06:43:31.536Z,99930.41
2023-04-11T06:44:34.705Z,99935.57
2023-04-11T06:45:36.872Z,99935.66
2023-04-11T06:46:39.014Z,99934.28
2023-04-11T06:47:41.194Z,99924.70
2023-04-11T06:48:43.467Z,99921.07
2023-04-11T06:49:45.461Z,99930.02
2023-04-11T06:50:49.317Z,99924.45
2023-04-11T06:51:51.774Z,99927.63
2023-04-11T06:52:53.774Z,99927.47
2023-04-11T06:53:56.430Z,99931.48
2023-04-11T06:54:59.223Z,99932.77
2023-04-11T06:56:03.725Z,99932.89
2023-04-11T06:57:08.313Z,99935.38
2023-04-11T06:58:10.466Z,99934.51
2023-04-11T06:59:13.481Z,99934.51
2023-04-11T07:00:16.438Z,99925.70
2023-04-11T07:01:20.027Z,99929.58
2023-04-11T07:02:24.397Z,99919.07
2023-04-11T07:03:26.948Z,99924.69
2023-04-11T07:04:29.320Z,99920.88
2023-04-11T07:05:33.708Z,99925.01
2023-04-11T07:06:35.997Z,99913.83
2023-04-11T07:07:39.176Z,99919.80
2023-04-11T07:09:53.067Z,99908.66
2023-04-11T07:10:55.052Z,99916.78
2023-04-11T07:11:57.042Z,99912.13
2023-04-11T07:13:02.440Z,99906.96
2023-04-11T07:14:05.437Z,99905.00
2023-04-11T07:15:10.455Z,99907.44
2023-04-11T07:16:13.054Z,99908.44
2023-04-11T07:17:15.790Z,99898.83
2023-04-11T07:18:18.489Z,99897.00
2023-04-11T07:19:20.598Z,99899.47
2023-04-11T07:20:23.153Z,99895.39
2023-04-11T07:21:29.095Z,99895.78
2023-04-11T07:22:31.214Z,99895.95
2023-04-11T07:23:33.052Z,99895.55
2023-04-11T07:24:34.928Z,99892.55
2023-04-11T07:25:39.044Z,99889.42
2023-04-11T07:26:41.812Z,99889.42
2023-04-11T07:27:45.685Z,99902.47
2023-04-11T07:28:47.814Z,99897.08
2023-04-11T07:29:50.515Z,99895.94
2023-04-11T07:30:52.897Z,99902.67
2023-04-11T07:31:55.446Z,99887.88
2023-04-11T07:32:58.184Z,99890.40
2023-04-11T07:34:00.181Z,99892.64
2023-04-11T07:35:03.099Z,99889.77
2023-04-11T07:36:07.560Z,99891.31
2023-04-11T07:37:10.564Z,99892.59
2023-04-11T07:38:13.941Z,99883.61
2023-04-11T07:39:16.403Z,99881.69
2023-04-11T07:40:18.650Z,99878.57
2023-04-11T07:41:20.793Z,99870.68
2023-04-11T07:42:22.818Z,99883.55
2023-04-11T07:43:29.710Z,99882.78
2023-04-11T07:44:32.254Z,99877.41
2023-04-11T07:45:35.852Z,99877.41
2023-04-11T07:46:38.674Z,99871.86
2023-04-11T07:47:40.757Z,99873.22
2023-04-11T07:48:43.050Z,99871.19
2023-04-11T07:49:45.149Z,99877.95
2023-04-11T07:50:48.272Z,99875.93
2023-04-11T07:51:50.895Z,99875.93
2023-04-11T07:52:53.114Z,99871.97
2023-04-11T07:53:55.501Z,99867.56
2023-04-11T07:54:58.943Z,99864.80
2023-04-11T07:56:02.073Z,99867.10
2023-04-11T07:57:04.791Z,99865.63
2023-04-11T07:58:07.491Z,99868.18
2023-04-11T07:59:11.487Z,99862.06
2023-04-11T08:00:20.582Z,99865.26
2023-04-11T08:01:24.432Z,99857.42
2023-04-11T08:02:26.859Z,99856.75
2023-04-11T08:03:29.580Z,99852.19
2023-04-11T08:04:34.704Z,99858.67
2023-04-11T08:05:37.158Z,99855.80
2023-04-11T08:06:39.662Z,99849.65
2023-04-11T08:07:41.894Z,99849.39
2023-04-11T08:08:45.523Z,99854.69
2023-04-11T08:09:47.742Z,99853.77
2023-04-11T08:10:51.999Z,99849.46
2023-04-11T08:11:56.143Z,99849.65
2023-04-11T08:12:58.550Z,99844.42
2023-04-11T08:14:00.681Z,99840.28
2023-04-11T08:15:04.335Z,99844.23
2023-04-11T08:16:09.694Z,99839.36
2023-04-11T08:17:25.096Z,99848.66
2023-04-11T08:18:20.178Z,99842.81
2023-04-11T08:19:22.503Z,99843.77
2023-04-11T08:20:25.866Z,99841.28
2023-04-11T08:21:28.003Z,99844.23
2023-04-11T08:22:32.957Z,99845.74
2023-04-11T08:23:36.623Z,99848.30
2023-04-11T08:24:38.770Z,99844.05
2023-04-11T08:25:42.036Z,99845.01
2023-04-11T08:26:45.130Z,99842.73
2023-04-11T08:27:47.661Z,99831.75
2023-04-11T08:28:49.790Z,99826.72
2023-04-11T08:29:51.705Z,99830.83
2023-04-11T08:30:55.825Z,99829.59
2023-04-11T08:31:57.893Z,99820.73
2023-04-11T08:33:00.230Z,99825.87
2023-04-11T08:34:05.367Z,99827.56
2023-04-11T08:35:08.055Z,99832.28
2023-04-11T08:36:11.684Z,99820.48
2023-04-11T08:37:13.810Z,99820.23
2023-04-11T08:38:16.508Z,99820.96
2023-04-11T08:39:18.794Z,99819.20
2023-04-11T08:40:21.630Z,99816.15
2023-04-11T08:41:23.539Z,99813.11
2023-04-11T08:42:30.182Z,99823.92
2023-04-11T08:43:38.311Z,99819.27
2023-04-11T08:44:40.469Z,99811.83
2023-04-11T08:58:35.953Z,99782.95
2023-04-11T08:59:50.691Z,99789.16
2023-04-11T09:01:02.737Z,99788.56
2023-04-11T09:02:10.002Z,99781.36
2023-04-11T09:03:15.047Z,99782.39
2023-04-11T09:04:17.340Z,99783.15
2023-04-11T09:05:28.391Z,99783.15
2023-04-11T09:06:31.862Z,99775.45
2023-04-11T09:07:40.935Z,99777.53
2023-04-11T09:08:43.205Z,99783.31
2023-04-11T09:09:45.708Z,99771.72
2023-04-11T09:10:48.680Z,99775.63
2023-04-11T09:11:53.000Z,99766.91
2023-04-11T09:12:56.557Z,99773.02
2023-04-11T09:14:08.865Z,99779.52
2023-04-11T09:15:19.310Z,99773.45
2023-04-11T09:16:21.622Z,99763.21
2023-04-11T09:17:24.365Z,99758.72
2023-04-11T09:18:35.445Z,99765.78
2023-04-11T09:19:38.307Z,99755.42
2023-04-11T09:20:41.257Z,99759.08
2023-04-11T09:21:51.032Z,99762.41
2023-04-11T09:22:54.327Z,99758.32
2023-04-11T09:24:16.730Z,99756.05
2023-04-11T09:25:20.948Z,99761.37
2023-04-11T09:26:30.059Z,99750.52
2023-04-11T09:27:32.142Z,99742.13
2023-04-11T09:28:48.018Z,99745.91
2023-04-11T09:29:50.366Z,99752.80
2023-04-11T09:30:57.214Z,99750.86
2023-04-11T09:31:59.651Z,99741.91
2023-04-11T09:33:23.841Z,99740.67
2023-04-11T09:34:27.814Z,99740.89
2023-04-11T09:35:30.107Z,99739.44
2023-04-11T09:36:32.393Z,99737.34
2023-04-11T09:37:47.301Z,99731.98
2023-04-11T09:38:50.805Z,99739.63
2023-04-11T09:39:59.423Z,99733.03
2023-04-11T09:41:03.585Z,99730.85
2023-04-11T09:42:25.782Z,99724.75
2023-04-11T09:43:31.293Z,99729.58
2023-04-11T09:44:38.522Z,99730.44
2023-04-11T09:45:51.674Z,99724.55
2023-04-11T09:46:59.382Z,99723.62
2023-04-11T09:48:01.765Z,99721.19
2023-04-11T09:49:04.610Z,99716.16
2023-04-11T09:50:08.395Z,99715.75
2023-04-11T09:51:11.501Z,99723.75
2023-04-11T09:52:15.928Z,99719.57
2023-04-11T09:53:18.853Z,99720.17
2023-04-11T09:54:21.926Z,99717.12
2023-04-11T09:55:25.423Z,99720.14
2023-04-11T09:56:31.430Z,99713.63
2023-04-11T09:57:34.440Z,99715.95
2023-04-11T09:58:38.934Z,99720.14
2023-04-11T09:59:42.412Z,99711.92
2023-04-11T10:00:47.896Z,99711.01
2023-04-11T10:01:51.304Z,99713.10
2023-04-11T10:02:54.450Z,99710.52
2023-04-11T10:03:58.333Z,99707.96
2023-04-11T10:05:03.331Z,99704.14
2023-04-11T10:06:09.706Z,99702.46
2023-04-11T10:07:16.337Z,99707.96
2023-04-11T10:08:32.200Z,99701.93
2023-04-11T10:09:42.975Z,99695.63
2023-04-11T10:10:46.036Z,99696.19
2023-04-11T10:11:48.648Z,99708.19
2023-04-11T10:12:51.200Z,99699.13
2023-04-11T10:13:53.521Z,99698.81
2023-04-11T10:14:56.442Z,99695.75
2023-04-11T10:16:10.860Z,99701.00
2023-04-11T10:17:22.137Z,99695.86
2023-04-11T10:18:22.861Z,99693.03
2023-04-11T10:19:27.987Z,99702.50
2023-04-11T10:20:37.356Z,99694.73
2023-04-11T10:21:41.846Z,99692.11
2023-04-11T10:22:53.641Z,99685.80
2023-04-11T10:24:20.846Z,99691.19
2023-04-11T10:25:24.286Z,99691.56
2023-04-11T10:26:47.692Z,99687.60
2023-04-11T10:28:00.936Z,99681.91
2023-04-11T10:29:08.384Z,99684.16
2023-04-11T10:30:12.455Z,99676.44
2023-04-11T10:31:16.906Z,99672.82
2023-04-11T10:32:22.180Z,99667.95
2023-04-11T10:33:26.512Z,99667.95
2023-04-11T10:34:28.945Z,99668.85
2023-04-11T10:35:31.617Z,99669.16
2023-04-11T10:38:06.896Z,99656.06
2023-04-11T10:39:09.317Z,99657.84
2023-04-11T10:40:12.919Z,99657.84
2023-04-11T10:41:28.018Z,99660.47
2023-04-11T10:42:45.079Z,99657.11
2023-04-11T10:43:47.884Z,99658.09
2023-04-11T10:45:10.734Z,99655.30
2023-04-11T10:46:24.586Z,99650.61
2023-04-11T10:47:28.354Z,99646.02
2023-04-11T10:48:30.927Z,99644.63
2023-04-11T10:49:38.610Z,99644.47
2023-04-11T10:50:43.891Z,99649.58
2023-04-11T10:51:46.538Z,99639.52
2023-04-11T10:52:49.141Z,99631.82
2023-04-11T10:53:52.500Z,99645.77
2023-04-11T10:54:55.433Z,99642.33
2023-04-11T10:55:58.392Z,99637.63
2023-04-11T10:57:01.597Z,99640.30
2023-04-11T10:58:07.113Z,99639.38
2023-04-11T10:59:34.589Z,99637.02
2023-04-11T11:00:53.583Z,99635.33
2023-04-11T11:01:57.035Z,99641.05
2023-04-11T11:03:01.146Z,99639.18
2023-04-11T11:04:04.436Z,99636.33
2023-04-11T11:05:18.589Z,99637.77
2023-04-11T11:06:22.179Z,99630.95
2023-04-11T11:07:24.743Z,99625.53
2023-04-11T11:08:44.241Z,99625.53
2023-04-11T11:10:13.301Z,99635.77
2023-04-11T11:11:16.808Z,99634.67
2023-04-11T11:12:22.156Z,99637.05
2023-04-11T11:13:47.262Z,99642.09
2023-04-11T11:14:54.758Z,99634.70
2023-04-11T11:15:58.008Z,99633.69
2023-04-11T11:17:00.699Z,99632.75
2023-04-11T11:18:07.974Z,99650.22
2023-04-11T11:19:13.490Z,99641.84
2023-04-11T11:20:20.156Z,99644.14
2023-04-11T11:21:28.096Z,99634.02
2023-04-11T11:22:31.514Z,99631.90
2023-04-11T11:23:38.909Z,99628.92
2023-04-11T11:24:41.339Z,99624.63
2023-04-11T11:25:47.143Z,99624.63
2023-04-11T11:26:49.930Z,99629.68
2023-04-11T11:28:00.870Z,99629.27
2023-04-11T11:29:05.044Z,99616.38
2023-04-11T11:30:17.952Z,99621.19
2023-04-11T11:31:22.109Z,99623.38
2023-04-11T11:32:31.640Z,99614.11
2023-04-11T11:33:37.568Z,99627.00
2023-04-11T11:34:40.976Z,99623.55
2023-04-11T11:35:47.063Z,99620.33
2023-04-11T11:36:51.057Z,99619.84
2023-04-11T11:37:54.426Z,99620.61
2023-04-11T11:38:58.935Z,99617.42
2023-04-11T11:40:03.861Z,99614.86
2023-04-11T11:41:06.710Z,99626.03
2023-04-11T11:42:09.096Z,99613.27
2023-04-11T11:43:11.388Z,99616.02
2023-04-11T11:44:24.899Z,99611.11
2023-04-11T11:45:27.981Z,99618.08
2023-04-11T11:46:33.313Z,99611.94
2023-04-11T11:47:43.248Z,99604.05
2023-04-11T11:49:00.318Z,99606.59
2023-04-11T11:50:03.273Z,99604.33
2023-04-11T11:51:06.560Z,99600.27
2023-04-11T11:52:10.228Z,99595.00
2023-04-11T11:53:15.141Z,99598.84
2023-04-11T11:54:17.317Z,99602.54
2023-04-11T11:55:24.289Z,99593.46
2023-04-11T11:56:28.451Z,99590.00
2023-04-11T11:57:31.858Z,99594.05
2023-04-11T11:58:37.703Z,99594.30
2023-04-11T11:59:40.841Z,99585.77
2023-04-11T12:00:45.402Z,99588.55
2023-04-11T12:01:48.017Z,99586.84
2023-04-11T12:02:55.823Z,99587.11
2023-04-11T12:03:58.825Z,99581.31
2023-04-11T12:05:07.501Z,99586.94
2023-04-11T12:06:10.879Z,99580.31
2023-04-11T12:07:13.261Z,99570.05
2023-04-11T12:08:15.922Z,99573.05
2023-04-11T12:09:18.198Z,99570.28
2023-04-11T12:10:21.168Z,99567.95
2023-04-11T12:11:24.651Z,99564.88
2023-04-11T12:12:42.090Z,99570.46
2023-04-11T12:13:46.074Z,99562.69
2023-04-11T12:14:53.382Z,99563.41
2023-04-11T12:15:57.548Z,99563.84
2023-04-11T12:17:00.207Z,99565.39
2023-04-11T12:18:06.375Z,99563.09
2023-04-11T12:19:08.821Z,99563.02
2023-04-11T12:20:11.801Z,99561.25
2023-04-11T12:21:14.360Z,99563.39
2023-04-11T12:22:18.560Z,99557.16
2023-04-11T12:23:22.024Z,99557.16
2023-04-11T12:24:24.359Z,99554.99
2023-04-11T12:25:28.198Z,99557.90
2023-04-11T12:26:30.712Z,99557.83
2023-04-11T12:27:34.763Z,99554.64
2023-04-11T12:28:37.016Z,99559.81
2023-04-11T12:29:39.707Z,99554.47
2023-04-11T12:30:41.976Z,99545.89
2023-04-11T12:31:45.972Z,99543.64
2023-04-11T12:32:48.562Z,99548.23
2023-04-11T12:33:50.775Z,99543.92
2023-04-11T12:34:53.829Z,99552.20
2023-04-11T12:35:56.511Z,99547.27
2023-04-11T12:37:01.610Z,99545.08
2023-04-11T12:38:03.783Z,99545.39
2023-04-11T12:39:07.121Z,99539.25
2023-04-11T12:40:14.756Z,99538.35
2023-04-11T12:42:26.645Z,99530.83
2023-04-11T12:43:27.818Z,99532.75